Terminal Aerodrome Forecast
Issued by NWS Charleston, WV

Home | Current Version | Previous Version | Text Only | Print | Product List | Glossary On
Versions: 1 2 3 4 5 6 7 8 9 10 11 12 13 14 15 16 17 18 19 20 21 22 23 24 25 26 27
000
FTUS41 KRLX 231130
TAFEKN
TAF
KEKN 231130Z 2312/2412 00000KT 4SM BR SCT002
     FM231400 11005KT P6SM BKN040
     FM240300 11005KT P6SM OVC030
     FM240700 11005KT P6SM -SHRA OVC015=

USA.gov is the U.S. government's official web portal to all federal, state and local government web resources and services.